createdAt,value
2018-07-16T00:01:12.732Z,16.75
2018-07-16T00:02:44.300Z,16.79
2018-07-16T00:04:15.872Z,16.76
2018-07-16T00:05:47.643Z,16.73
2018-07-16T00:07:19.014Z,16.91
2018-07-16T00:08:50.586Z,17.08
2018-07-16T00:10:22.156Z,17.30
2018-07-16T00:11:53.828Z,17.34
2018-07-16T00:13:25.298Z,17.28
2018-07-16T00:14:56.870Z,17.14
2018-07-16T00:16:28.441Z,17.01
2018-07-16T00:18:00.112Z,16.96
2018-07-16T00:19:31.584Z,16.79
2018-07-16T00:21:03.154Z,16.66
2018-07-16T00:22:34.726Z,16.58
2018-07-16T00:24:06.397Z,16.38
2018-07-16T00:25:37.868Z,16.35
2018-07-16T00:27:09.447Z,16.39
2018-07-16T00:28:41.010Z,16.43
2018-07-16T00:30:12.682Z,16.46
2018-07-16T00:31:44.152Z,16.39
2018-07-16T00:33:15.724Z,16.20
2018-07-16T00:34:47.333Z,16.24
2018-07-16T00:36:18.866Z,16.12
2018-07-16T00:37:50.436Z,15.94
2018-07-16T00:39:22.257Z,15.83
2018-07-16T00:40:53.578Z,15.89
2018-07-16T00:42:25.350Z,16.12
2018-07-16T00:43:56.721Z,16.52
2018-07-16T00:45:28.292Z,16.68
2018-07-16T00:46:59.862Z,16.79
2018-07-16T00:48:31.433Z,16.75
2018-07-16T00:50:03.006Z,16.91
2018-07-16T00:51:34.576Z,16.79
2018-07-16T00:53:06.147Z,16.68
2018-07-16T00:54:37.717Z,16.56
2018-07-16T00:56:09.288Z,16.45
2018-07-16T00:57:40.859Z,16.33
2018-07-16T00:59:12.430Z,16.33
2018-07-16T01:00:44.101Z,16.21
2018-07-16T01:02:15.572Z,16.05
2018-07-16T01:03:47.143Z,16.07
2018-07-16T01:05:18.715Z,16.11
2018-07-16T01:06:50.286Z,16.00
2018-07-16T01:08:21.855Z,16.02
2018-07-16T01:09:53.426Z,15.93
2018-07-16T01:11:24.997Z,15.92
2018-07-16T01:12:56.669Z,15.97
2018-07-16T01:14:28.139Z,15.82
2018-07-16T01:15:59.709Z,15.76
2018-07-16T01:17:31.280Z,15.64
2018-07-16T01:19:02.951Z,15.68
2018-07-16T01:20:34.421Z,15.84
2018-07-16T01:22:05.993Z,15.67
2018-07-16T01:23:37.563Z,15.92
2018-07-16T01:25:09.133Z,15.94
2018-07-16T01:26:40.703Z,16.08
2018-07-16T01:28:12.274Z,16.07
2018-07-16T01:29:43.845Z,15.96
2018-07-16T01:31:15.416Z,15.78
2018-07-16T01:32:46.986Z,15.60
2018-07-16T01:34:18.557Z,15.49
2018-07-16T01:35:50.127Z,15.39
2018-07-16T01:37:21.898Z,15.25
2018-07-16T01:38:53.271Z,15.28
2018-07-16T01:40:24.839Z,15.32
2018-07-16T01:41:56.409Z,15.36
2018-07-16T01:43:27.980Z,15.39
2018-07-16T01:44:59.550Z,15.44
2018-07-16T01:46:31.121Z,15.47
2018-07-16T01:48:02.691Z,15.68
2018-07-16T01:49:34.261Z,15.84
2018-07-16T01:51:05.833Z,15.75
2018-07-16T01:52:37.402Z,15.68
2018-07-16T01:54:08.973Z,15.57
2018-07-16T01:55:40.643Z,15.39
2018-07-16T01:57:12.115Z,15.31
2018-07-16T01:58:43.684Z,15.14
2018-07-16T02:00:15.255Z,15.10
2018-07-16T02:01:46.826Z,14.95
2018-07-16T02:03:18.396Z,14.92
2018-07-16T02:04:49.965Z,14.91
2018-07-16T02:06:21.536Z,14.84
2018-07-16T02:07:53.357Z,14.88
2018-07-16T02:09:24.677Z,14.92
2018-07-16T02:10:56.247Z,14.89
2018-07-16T02:12:27.816Z,14.86
2018-07-16T02:13:59.487Z,14.94
2018-07-16T02:15:30.958Z,14.95
2018-07-16T02:17:02.528Z,14.92
2018-07-16T02:18:34.098Z,15.02
2018-07-16T02:20:05.667Z,14.96
2018-07-16T02:21:37.238Z,15.21
2018-07-16T02:23:08.807Z,15.43
2018-07-16T02:24:40.377Z,15.49
2018-07-16T02:26:11.948Z,15.53
2018-07-16T02:27:43.518Z,15.46
2018-07-16T02:29:15.094Z,15.44
2018-07-16T02:30:46.659Z,15.38
2018-07-16T02:32:18.490Z,15.38
2018-07-16T02:33:49.798Z,15.27
2018-07-16T02:35:21.369Z,15.19
2018-07-16T02:36:52.940Z,15.09
2018-07-16T02:38:24.766Z,15.02
2018-07-16T02:39:56.204Z,14.98
2018-07-16T02:41:27.648Z,15.02
2018-07-16T02:42:59.229Z,14.96
2018-07-16T02:44:30.795Z,14.89
2018-07-16T02:46:02.367Z,14.81
2018-07-16T02:47:33.928Z,14.68
2018-07-16T02:49:05.499Z,14.73
2018-07-16T02:50:37.170Z,14.80
2018-07-16T02:52:08.639Z,14.68
2018-07-16T02:53:40.210Z,14.60
2018-07-16T02:55:11.779Z,14.46
2018-07-16T02:56:43.349Z,14.33
2018-07-16T02:58:14.919Z,14.24
2018-07-16T02:59:46.491Z,14.25
2018-07-16T03:01:18.058Z,14.25
2018-07-16T03:02:49.730Z,14.33
2018-07-16T03:04:21.199Z,14.32
2018-07-16T03:05:52.768Z,14.37
2018-07-16T03:07:24.339Z,14.54
2018-07-16T03:08:56.262Z,14.45
2018-07-16T03:10:27.481Z,14.52
2018-07-16T03:11:59.048Z,14.57
2018-07-16T03:13:30.620Z,14.47
2018-07-16T03:15:02.189Z,14.52
2018-07-16T03:16:33.760Z,14.81
2018-07-16T03:18:05.467Z,15.01
2018-07-16T03:19:36.897Z,14.98
2018-07-16T03:21:08.467Z,14.96
2018-07-16T03:22:40.040Z,14.89
2018-07-16T03:24:11.617Z,14.68
2018-07-16T03:25:43.176Z,14.54
2018-07-16T03:27:14.851Z,14.46
2018-07-16T03:28:46.316Z,14.42
2018-07-16T03:30:17.885Z,14.33
2018-07-16T03:31:49.456Z,14.29
2018-07-16T03:33:21.124Z,14.39
2018-07-16T03:34:52.593Z,14.57
2018-07-16T03:36:24.163Z,14.57
2018-07-16T03:37:55.733Z,14.54
2018-07-16T03:39:27.553Z,14.45
2018-07-16T03:40:58.872Z,14.46
2018-07-16T03:42:30.442Z,14.32
2018-07-16T03:44:02.011Z,14.15
2018-07-16T03:45:33.681Z,14.18
2018-07-16T03:47:05.151Z,14.18
2018-07-16T03:48:36.720Z,14.25
2018-07-16T03:50:08.290Z,14.22
2018-07-16T03:51:39.859Z,14.10
2018-07-16T03:53:11.428Z,14.04
2018-07-16T03:54:42.998Z,14.10
2018-07-16T03:56:15.119Z,14.12
2018-07-16T03:57:46.287Z,13.96
2018-07-16T03:59:17.706Z,13.95
2018-07-16T04:00:49.282Z,13.96
2018-07-16T04:02:20.846Z,13.91
2018-07-16T04:03:52.515Z,13.96
2018-07-16T04:05:23.984Z,14.02
2018-07-16T04:06:55.554Z,14.17
2018-07-16T04:08:27.124Z,14.14
2018-07-16T04:09:58.943Z,14.09
2018-07-16T04:11:30.261Z,14.03
2018-07-16T04:13:01.831Z,13.97
2018-07-16T04:14:33.401Z,13.82
2018-07-16T04:16:04.971Z,13.89
2018-07-16T04:17:36.539Z,14.03
2018-07-16T04:19:08.108Z,14.12
2018-07-16T04:20:39.677Z,14.14
2018-07-16T04:22:11.447Z,14.28
2018-07-16T04:23:42.816Z,14.20
2018-07-16T04:25:14.385Z,14.10
2018-07-16T04:26:45.955Z,13.87
2018-07-16T04:28:17.524Z,13.60
2018-07-16T04:29:49.094Z,13.55
2018-07-16T04:31:20.665Z,13.44
2018-07-16T04:32:52.232Z,13.33
2018-07-16T04:34:23.901Z,13.38
2018-07-16T04:35:55.369Z,13.42
2018-07-16T04:37:26.939Z,13.49
2018-07-16T04:38:58.507Z,13.51
2018-07-16T04:40:30.427Z,13.54
2018-07-16T04:42:01.646Z,13.49
2018-07-16T04:43:33.215Z,13.54
2018-07-16T04:45:04.789Z,13.54
2018-07-16T04:46:36.354Z,13.49
2018-07-16T04:48:07.922Z,13.44
2018-07-16T04:49:39.491Z,13.52
2018-07-16T04:51:11.060Z,13.48
2018-07-16T04:52:42.628Z,13.49
2018-07-16T04:54:14.198Z,13.62
2018-07-16T04:55:45.767Z,13.60
2018-07-16T04:57:17.336Z,13.64
2018-07-16T04:58:49.005Z,13.49
2018-07-16T05:00:20.473Z,13.55
2018-07-16T05:01:52.043Z,13.39
2018-07-16T05:03:23.617Z,13.38
2018-07-16T05:04:55.181Z,13.39
2018-07-16T05:06:26.749Z,13.32
2018-07-16T05:07:58.319Z,13.30
2018-07-16T05:09:29.888Z,13.42
2018-07-16T05:11:01.460Z,13.39
2018-07-16T05:12:33.025Z,13.46
2018-07-16T05:14:04.594Z,13.44
2018-07-16T05:15:36.163Z,13.79
2018-07-16T05:17:07.832Z,13.99
2018-07-16T05:18:39.300Z,13.64
2018-07-16T05:20:10.873Z,13.52
2018-07-16T05:21:42.441Z,13.36
2018-07-16T05:23:14.007Z,13.26
2018-07-16T05:24:45.576Z,13.52
2018-07-16T05:26:17.149Z,13.51
2018-07-16T05:27:48.713Z,13.51
2018-07-16T05:29:20.282Z,13.44
2018-07-16T05:30:51.853Z,13.51
2018-07-16T05:32:23.635Z,13.51
2018-07-16T05:33:54.989Z,13.33
2018-07-16T05:35:27.009Z,13.26
2018-07-16T05:36:58.127Z,13.44
2018-07-16T05:38:29.695Z,13.42
2018-07-16T05:40:01.266Z,13.32
2018-07-16T05:41:32.832Z,13.33
2018-07-16T05:43:04.402Z,13.29
2018-07-16T05:44:35.971Z,13.20
2018-07-16T05:46:07.539Z,13.29
2018-07-16T05:47:39.109Z,13.19
2018-07-16T05:49:10.677Z,13.22
2018-07-16T05:50:42.245Z,13.19
2018-07-16T05:52:13.814Z,13.22
2018-07-16T05:53:45.483Z,13.19
2018-07-16T05:55:16.951Z,13.30
2018-07-16T05:56:48.520Z,13.30
2018-07-16T05:58:20.188Z,13.33
2018-07-16T05:59:51.658Z,13.32
2018-07-16T06:01:23.230Z,13.19
2018-07-16T06:02:54.795Z,13.20
2018-07-16T06:04:26.367Z,13.20
2018-07-16T06:05:58.033Z,13.10
2018-07-16T06:07:29.501Z,13.04
2018-07-16T06:09:01.070Z,13.07
2018-07-16T06:10:32.638Z,13.20
2018-07-16T06:12:04.558Z,13.11
2018-07-16T06:13:35.776Z,13.10
2018-07-16T06:15:07.345Z,13.11
2018-07-16T06:16:38.918Z,13.11
2018-07-16T06:18:10.481Z,13.42
2018-07-16T06:19:42.050Z,13.29
2018-07-16T06:21:13.621Z,13.25
2018-07-16T06:22:45.187Z,13.17
2018-07-16T06:24:16.906Z,13.20
2018-07-16T06:25:48.325Z,13.15
2018-07-16T06:27:19.893Z,13.11
2018-07-16T06:28:51.461Z,13.07
2018-07-16T06:30:23.129Z,12.86
2018-07-16T06:31:54.598Z,12.70
2018-07-16T06:33:26.166Z,12.56
2018-07-16T06:34:57.735Z,12.50
2018-07-16T06:36:29.404Z,12.57
2018-07-16T06:38:00.871Z,12.57
2018-07-16T06:39:32.494Z,12.78
2018-07-16T06:41:04.080Z,12.95
2018-07-16T06:42:35.826Z,13.03
2018-07-16T06:44:07.144Z,13.03
2018-07-16T06:45:38.713Z,13.04
2018-07-16T06:47:10.281Z,13.11
2018-07-16T06:48:41.950Z,13.41
2018-07-16T06:50:13.420Z,13.66
2018-07-16T06:51:45.056Z,13.48
2018-07-16T06:53:16.624Z,13.33
2018-07-16T06:54:48.394Z,13.19
2018-07-16T06:56:19.762Z,13.20
2018-07-16T06:57:51.333Z,13.20
2018-07-16T06:59:22.898Z,13.15
2018-07-16T07:00:54.466Z,13.01
2018-07-16T07:02:26.069Z,12.97
2018-07-16T07:03:57.548Z,12.86
2018-07-16T07:05:29.117Z,12.92
2018-07-16T07:07:00.785Z,12.85
2018-07-16T07:08:32.253Z,12.77
2018-07-16T07:10:03.834Z,12.95
2018-07-16T07:11:35.391Z,13.14
2018-07-16T07:13:07.208Z,13.11
2018-07-16T07:14:38.526Z,13.19
2018-07-16T07:16:10.094Z,13.19
2018-07-16T07:17:41.662Z,13.23
2018-07-16T07:19:13.230Z,13.30
2018-07-16T07:20:44.798Z,13.44
2018-07-16T07:22:16.366Z,13.46
2018-07-16T07:23:47.934Z,13.28
2018-07-16T07:25:19.891Z,13.10
2018-07-16T07:26:51.071Z,13.04
2018-07-16T07:28:22.640Z,12.90
2018-07-16T07:29:54.208Z,12.70
2018-07-16T07:31:25.777Z,12.62
2018-07-16T07:32:57.344Z,12.59
2018-07-16T07:34:28.913Z,12.45
2018-07-16T07:36:00.506Z,12.41
2018-07-16T07:37:32.149Z,12.50
2018-07-16T07:39:03.617Z,12.47
2018-07-16T07:40:35.187Z,12.50
2018-07-16T07:42:06.757Z,12.49
2018-07-16T07:43:38.673Z,12.47
2018-07-16T07:45:09.890Z,12.59
2018-07-16T07:46:41.460Z,12.68
2018-07-16T07:48:13.027Z,12.62
2018-07-16T07:49:44.599Z,12.70
2018-07-16T07:51:16.164Z,12.59
2018-07-16T07:52:47.746Z,12.54
2018-07-16T07:54:19.461Z,12.41
2018-07-16T07:55:51.018Z,12.41
2018-07-16T07:57:22.436Z,12.32
2018-07-16T07:58:54.005Z,12.21
2018-07-16T08:00:25.573Z,12.12
2018-07-16T08:01:57.241Z,12.32
2018-07-16T08:03:28.785Z,12.32
2018-07-16T08:05:00.278Z,12.56
2018-07-16T08:06:31.845Z,12.82
2018-07-16T08:08:03.513Z,13.08
2018-07-16T08:09:34.980Z,13.12
2018-07-16T08:11:06.552Z,13.20
2018-07-16T08:12:38.118Z,13.42
2018-07-16T08:14:09.935Z,13.51
2018-07-16T08:15:41.252Z,13.59
2018-07-16T08:17:12.821Z,13.52
2018-07-16T08:18:44.391Z,13.32
2018-07-16T08:20:16.057Z,13.14
2018-07-16T08:21:47.525Z,13.42
2018-07-16T08:23:19.097Z,13.64
2018-07-16T08:24:50.669Z,14.03
2018-07-16T08:26:22.230Z,14.27
2018-07-16T08:27:53.798Z,14.57
2018-07-16T08:29:25.371Z,15.03
2018-07-16T08:30:56.935Z,14.83
2018-07-16T08:32:28.504Z,14.75
2018-07-16T08:34:00.073Z,15.28
2018-07-16T08:35:31.640Z,14.94
2018-07-16T08:37:03.209Z,14.88
2018-07-16T08:38:34.981Z,14.92
2018-07-16T08:40:06.347Z,14.72
2018-07-16T08:41:37.916Z,14.27
2018-07-16T08:43:09.483Z,13.82
2018-07-16T08:44:41.052Z,13.44
2018-07-16T08:46:12.673Z,13.07
2018-07-16T08:47:44.190Z,13.04
2018-07-16T08:49:15.758Z,12.97
2018-07-16T08:50:47.327Z,12.70
2018-07-16T08:52:18.896Z,12.70
2018-07-16T08:53:50.464Z,12.60
2018-07-16T08:55:22.032Z,12.47
2018-07-16T08:56:53.701Z,12.45
2018-07-16T08:58:25.169Z,12.38
2018-07-16T08:59:56.740Z,12.27
2018-07-16T09:01:28.305Z,12.14
2018-07-16T09:03:00.029Z,12.07
2018-07-16T09:04:31.442Z,12.09
2018-07-16T09:06:03.010Z,12.19
2018-07-16T09:07:34.578Z,12.14
2018-07-16T09:09:06.146Z,12.13
2018-07-16T09:10:37.715Z,12.34
2018-07-16T09:12:09.282Z,12.27
2018-07-16T09:13:41.011Z,12.34
2018-07-16T09:15:12.518Z,12.31
2018-07-16T09:16:44.054Z,12.16
2018-07-16T09:18:15.554Z,12.12
2018-07-16T09:19:47.125Z,11.99
2018-07-16T09:21:18.690Z,11.99
2018-07-16T09:22:50.257Z,11.98
2018-07-16T09:24:21.825Z,11.86
2018-07-16T09:25:53.393Z,11.72
2018-07-16T09:27:24.961Z,11.86
2018-07-16T09:28:56.539Z,11.85
2018-07-16T09:30:28.097Z,11.73
2018-07-16T09:31:59.665Z,11.69
2018-07-16T09:33:31.333Z,11.69
2018-07-16T09:35:02.805Z,11.73
2018-07-16T09:36:34.369Z,11.60
2018-07-16T09:38:05.938Z,11.58
2018-07-16T09:39:37.654Z,11.64
2018-07-16T09:41:09.072Z,11.67
2018-07-16T09:42:40.686Z,11.69
2018-07-16T09:44:12.207Z,11.73
2018-07-16T09:45:43.775Z,11.72
2018-07-16T09:47:15.343Z,11.85
2018-07-16T09:48:46.910Z,11.86
2018-07-16T09:50:18.640Z,11.76
2018-07-16T09:51:50.146Z,11.70
2018-07-16T09:53:21.715Z,11.64
2018-07-16T09:54:53.181Z,11.70
2018-07-16T09:56:24.915Z,11.69
2018-07-16T09:57:56.640Z,11.75
2018-07-16T09:59:27.884Z,11.69
2018-07-16T10:00:59.453Z,11.85
2018-07-16T10:02:31.020Z,11.82
2018-07-16T10:04:02.839Z,12.09
2018-07-16T10:07:06.453Z,13.00
2018-07-16T10:08:37.524Z,13.29
2018-07-16T10:10:08.959Z,13.66
2018-07-16T10:11:40.438Z,14.12
2018-07-16T10:13:11.996Z,14.46
2018-07-16T10:16:15.518Z,15.38
2018-07-16T10:17:46.703Z,15.72
2018-07-16T10:19:18.455Z,16.11
2018-07-16T10:20:49.842Z,16.48
2018-07-16T10:22:21.414Z,16.79
2018-07-16T10:23:52.980Z,17.18
2018-07-16T10:25:24.555Z,17.52
2018-07-16T10:26:56.348Z,17.99
2018-07-16T10:28:27.806Z,18.30
2018-07-16T10:31:30.835Z,18.76
2018-07-16T10:33:02.710Z,18.81
2018-07-16T10:36:05.578Z,19.54
2018-07-16T10:37:37.122Z,19.58
2018-07-16T10:39:08.843Z,19.66
2018-07-16T10:40:40.272Z,19.56
2018-07-16T10:43:44.248Z,19.51
2018-07-16T10:45:14.986Z,19.69
2018-07-16T10:48:18.184Z,20.01
2018-07-16T10:49:49.860Z,20.16
2018-07-16T10:51:21.283Z,20.03
2018-07-16T10:52:52.868Z,20.39
2018-07-16T10:54:24.579Z,20.94
2018-07-16T10:55:56.161Z,21.19
2018-07-16T10:57:27.733Z,21.40
2018-07-16T10:58:59.155Z,21.61
2018-07-16T11:00:31.261Z,21.80
2018-07-16T11:02:03.450Z,22.03
2018-07-16T11:03:34.189Z,21.86
2018-07-16T11:05:05.659Z,22.10
2018-07-16T11:06:37.031Z,21.69
2018-07-16T11:08:08.608Z,21.61
2018-07-16T11:09:40.719Z,21.38
2018-07-16T11:12:43.338Z,21.24
2018-07-16T11:15:47.159Z,21.74
2018-07-16T11:17:18.069Z,21.43
2018-07-16T11:20:21.476Z,20.97
2018-07-16T11:21:53.072Z,21.29
2018-07-16T11:26:27.738Z,21.46
2018-07-16T11:27:59.529Z,21.56
2018-07-16T11:31:02.468Z,22.31
2018-07-16T11:32:33.844Z,22.72
2018-07-16T11:34:06.447Z,22.86
2018-07-16T11:35:37.364Z,22.60
2018-07-16T11:37:08.881Z,21.75
2018-07-16T11:40:11.962Z,21.96
2018-07-16T11:41:43.531Z,21.83
2018-07-16T11:43:14.931Z,21.74
2018-07-16T11:46:18.479Z,22.31
2018-07-16T11:47:49.861Z,22.73
2018-07-16T11:49:21.219Z,22.61
2018-07-16T11:50:52.798Z,22.94
2018-07-16T11:52:24.412Z,22.68
2018-07-16T11:53:55.955Z,23.00
2018-07-16T11:55:27.737Z,22.97
2018-07-16T11:56:59.147Z,22.97
2018-07-16T11:58:32.211Z,23.23
2018-07-16T12:01:33.879Z,23.32
2018-07-16T12:04:37.012Z,23.88
2018-07-16T12:06:08.592Z,23.60
2018-07-16T12:07:40.221Z,23.54
2018-07-16T12:09:11.764Z,23.57
2018-07-16T12:10:43.333Z,23.46
2018-07-16T12:12:14.979Z,23.75
2018-07-16T12:15:18.073Z,23.46
2018-07-16T12:18:21.537Z,23.50
2018-07-16T12:19:52.814Z,23.87
2018-07-16T12:21:24.838Z,24.39
2018-07-16T12:22:55.976Z,24.37
2018-07-16T12:26:00.352Z,24.21
2018-07-16T12:27:30.776Z,24.22
2018-07-16T12:30:33.913Z,24.55
2018-07-16T12:32:05.769Z,24.21
2018-07-16T12:33:37.043Z,23.20
2018-07-16T12:35:08.755Z,23.55
2018-07-16T12:36:40.290Z,24.39
2018-07-16T12:38:12.088Z,25.35
2018-07-16T12:39:43.531Z,25.72
2018-07-16T12:41:15.692Z,25.92
2018-07-16T12:42:46.533Z,25.60
2018-07-16T12:44:18.110Z,25.75
2018-07-16T12:45:49.717Z,25.64
2018-07-16T12:47:21.276Z,26.01
2018-07-16T12:48:52.856Z,26.07
2018-07-16T12:50:24.503Z,26.23
2018-07-16T12:53:27.604Z,26.43
2018-07-16T12:56:30.867Z,26.67
2018-07-16T12:58:02.351Z,26.01
2018-07-16T12:59:34.135Z,26.10
2018-07-16T13:02:37.191Z,27.28
2018-07-16T13:04:08.890Z,26.50
2018-07-16T13:05:40.569Z,25.99
2018-07-16T13:07:11.870Z,25.99
2018-07-16T13:10:15.015Z,26.15
2018-07-16T13:11:46.615Z,26.62
2018-07-16T13:13:18.920Z,26.65
2018-07-16T13:17:53.617Z,26.52
2018-07-16T13:19:24.510Z,27.27
2018-07-16T13:20:56.092Z,27.21
2018-07-16T13:22:27.678Z,27.41
2018-07-16T13:25:30.869Z,27.31
2018-07-16T13:27:02.429Z,26.77
2018-07-16T13:28:34.029Z,27.06
2018-07-16T13:30:05.592Z,27.66
2018-07-16T13:31:37.258Z,27.41
2018-07-16T13:33:08.811Z,27.18
2018-07-16T13:34:41.214Z,27.28
2018-07-16T13:36:11.924Z,27.34
2018-07-16T13:37:43.921Z,27.04
2018-07-16T13:39:15.396Z,27.24
2018-07-16T13:40:46.674Z,27.21
2018-07-16T13:42:18.462Z,27.37
2018-07-16T13:43:49.842Z,27.37
2018-07-16T13:45:21.426Z,27.27
2018-07-16T13:46:53.141Z,27.57
2018-07-16T13:48:24.854Z,27.62
2018-07-16T13:49:56.176Z,28.09
2018-07-16T13:51:27.961Z,27.92
2018-07-16T13:53:00.044Z,28.15
2018-07-16T13:54:30.928Z,28.00
2018-07-16T13:56:02.637Z,28.34
2018-07-16T13:57:34.096Z,27.77
2018-07-16T13:59:05.685Z,28.14
2018-07-16T14:00:37.272Z,28.14
2018-07-16T14:02:08.861Z,28.00
2018-07-16T14:03:40.974Z,28.21
2018-07-16T14:05:12.013Z,28.64
2018-07-16T14:06:43.600Z,29.57
2018-07-16T14:09:46.765Z,29.71
2018-07-16T14:11:18.349Z,29.27
2018-07-16T14:12:49.993Z,28.85
2018-07-16T14:14:21.518Z,28.95
2018-07-16T14:15:53.204Z,28.95
2018-07-16T14:17:26.325Z,28.52
2018-07-16T14:18:56.441Z,28.56
2018-07-16T14:20:28.423Z,28.80
2018-07-16T14:21:59.671Z,29.06
2018-07-16T14:23:31.655Z,29.11
2018-07-16T14:25:02.700Z,29.19
2018-07-16T14:26:34.194Z,28.95
2018-07-16T14:28:05.921Z,29.09
2018-07-16T14:29:37.364Z,29.02
2018-07-16T14:31:08.953Z,29.30
2018-07-16T14:32:40.744Z,29.02
2018-07-16T14:34:12.219Z,28.85
2018-07-16T14:35:43.703Z,29.51
2018-07-16T14:37:15.292Z,29.98
2018-07-16T14:38:47.077Z,29.83
2018-07-16T14:40:18.610Z,29.42
2018-07-16T14:41:50.045Z,29.52
2018-07-16T14:43:21.629Z,29.60
2018-07-16T14:44:53.293Z,30.05
2018-07-16T14:46:25.339Z,30.65
2018-07-16T14:47:56.387Z,30.70
2018-07-16T14:49:28.174Z,29.79
2018-07-16T14:50:59.557Z,29.76
2018-07-16T14:52:31.548Z,29.97
2018-07-16T14:54:02.728Z,30.31
2018-07-16T14:55:34.519Z,30.19
2018-07-16T14:57:05.967Z,29.39
2018-07-16T14:58:37.584Z,30.00
2018-07-16T15:00:09.273Z,29.87
2018-07-16T15:01:41.194Z,29.76
2018-07-16T15:03:13.425Z,29.57
2018-07-16T15:04:44.186Z,29.67
2018-07-16T15:07:47.202Z,30.38
2018-07-16T15:09:18.583Z,30.16
2018-07-16T15:10:50.398Z,30.02
2018-07-16T15:12:21.803Z,30.26
2018-07-16T15:13:53.567Z,30.38
2018-07-16T15:15:24.924Z,30.58
2018-07-16T15:16:56.510Z,30.08
2018-07-16T15:18:28.096Z,30.61
2018-07-16T15:19:59.826Z,31.14
2018-07-16T15:23:03.392Z,29.16
2018-07-16T15:24:34.979Z,28.66
2018-07-16T15:26:06.440Z,29.70
2018-07-16T15:27:37.611Z,31.01
2018-07-16T15:29:09.358Z,29.43
2018-07-16T15:35:15.937Z,31.29
2018-07-16T15:38:18.711Z,29.26
2018-07-16T15:39:50.414Z,29.46
2018-07-16T15:41:21.942Z,29.46
2018-07-16T15:42:54.053Z,30.75
2018-07-16T15:44:25.263Z,31.10
2018-07-16T15:45:56.945Z,32.10
2018-07-16T15:47:29.854Z,32.40
2018-07-16T15:48:59.840Z,32.13
2018-07-16T15:52:02.985Z,31.21
2018-07-16T15:53:35.048Z,32.10
2018-07-16T15:55:06.270Z,32.96
2018-07-16T15:56:37.778Z,31.36
2018-07-16T15:58:09.479Z,30.46
2018-07-16T15:59:40.998Z,30.22
2018-07-16T16:01:12.555Z,30.43
2018-07-16T16:02:44.109Z,29.94
2018-07-16T16:04:15.887Z,29.92
2018-07-16T16:05:47.365Z,30.98
2018-07-16T16:08:50.711Z,31.65
2018-07-16T16:11:53.610Z,32.52
2018-07-16T16:13:25.399Z,32.84
2018-07-16T16:14:57.523Z,32.85
2018-07-16T16:16:28.435Z,32.84
2018-07-16T16:18:00.083Z,32.43
2018-07-16T16:19:31.543Z,31.38
2018-07-16T16:22:35.021Z,32.01
2018-07-16T16:25:38.401Z,33.16
2018-07-16T16:27:09.522Z,32.93
2018-07-16T16:28:41.268Z,33.34
2018-07-16T16:30:12.663Z,31.50
2018-07-16T16:31:44.239Z,32.37
2018-07-16T16:33:15.828Z,32.89
2018-07-16T16:36:19.010Z,32.94
2018-07-16T16:39:22.415Z,33.79
2018-07-16T16:40:53.966Z,34.72
2018-07-16T16:43:58.081Z,33.66
2018-07-16T16:45:28.740Z,33.61
2018-07-16T16:47:00.115Z,33.66
2018-07-16T16:48:32.055Z,32.74
2018-07-16T16:50:03.291Z,33.68
2018-07-16T16:51:35.193Z,33.68
2018-07-16T16:53:06.462Z,34.13
2018-07-16T16:54:38.051Z,34.24
2018-07-16T16:56:09.788Z,34.72
2018-07-16T16:57:41.288Z,34.58
2018-07-16T16:59:12.817Z,34.06
2018-07-16T17:00:44.404Z,33.14
2018-07-16T17:02:15.989Z,33.87
2018-07-16T17:05:19.617Z,33.57
2018-07-16T17:06:50.816Z,32.66
2018-07-16T17:08:22.361Z,33.32
2018-07-16T17:09:53.929Z,34.02
2018-07-16T17:12:57.593Z,34.22
2018-07-16T17:16:00.278Z,32.69
2018-07-16T17:17:31.863Z,31.85
2018-07-16T17:19:03.663Z,32.57
2018-07-16T17:22:06.835Z,34.22
2018-07-16T17:23:38.261Z,33.63
2018-07-16T17:25:10.537Z,33.88
2018-07-16T17:26:47.362Z,32.97
2018-07-16T17:28:13.214Z,33.57
2018-07-16T17:29:44.560Z,34.27
2018-07-16T17:31:17.093Z,33.91
2018-07-16T17:34:19.319Z,33.21
2018-07-16T17:35:50.905Z,33.90
2018-07-16T17:37:22.501Z,34.24
2018-07-16T17:38:54.079Z,34.84
2018-07-16T17:40:25.688Z,34.06
2018-07-16T17:41:57.312Z,32.23
2018-07-16T17:43:28.940Z,30.82
2018-07-16T17:45:00.425Z,32.15
2018-07-16T17:46:32.012Z,33.01
2018-07-16T17:49:35.193Z,32.89
2018-07-16T17:51:06.770Z,30.82
2018-07-16T17:52:38.356Z,30.47
2018-07-16T17:54:09.941Z,30.55
2018-07-16T17:55:41.555Z,31.54
2018-07-16T17:57:13.112Z,32.07
2018-07-16T17:58:44.733Z,33.03
2018-07-16T18:00:16.307Z,32.15
2018-07-16T18:01:47.974Z,31.95
2018-07-16T18:03:19.654Z,32.33
2018-07-16T18:04:51.037Z,33.31
2018-07-16T18:06:22.621Z,33.57
2018-07-16T18:07:54.208Z,33.41
2018-07-16T18:09:25.794Z,32.44
2018-07-16T18:10:57.376Z,31.68
2018-07-16T18:12:28.960Z,31.88
2018-07-16T18:14:00.545Z,32.56
2018-07-16T18:15:32.129Z,32.55
2018-07-16T18:17:03.714Z,32.04
2018-07-16T18:18:35.307Z,32.28
2018-07-16T18:20:06.985Z,33.07
2018-07-16T18:21:38.467Z,33.51
2018-07-16T18:23:10.053Z,33.53
2018-07-16T18:24:41.637Z,33.18
2018-07-16T18:26:13.221Z,33.41
2018-07-16T18:27:44.838Z,33.71
2018-07-16T18:29:16.390Z,34.05
2018-07-16T18:30:47.974Z,33.97
2018-07-16T18:32:19.558Z,33.50
2018-07-16T18:33:51.449Z,33.23
2018-07-16T18:35:22.733Z,33.42
2018-07-16T18:36:54.311Z,34.02
2018-07-16T18:38:26.166Z,34.66
2018-07-16T18:41:29.113Z,33.63
2018-07-16T18:43:00.851Z,33.14
2018-07-16T18:44:32.405Z,33.45
2018-07-16T18:46:03.815Z,33.59
2018-07-16T18:47:35.400Z,33.44
2018-07-16T18:49:06.985Z,33.61
2018-07-16T18:50:38.569Z,34.12
2018-07-16T18:52:10.468Z,34.21
2018-07-16T18:53:41.735Z,34.78
2018-07-16T18:55:13.540Z,34.02
2018-07-16T18:56:45.024Z,33.32
2018-07-16T18:58:16.486Z,32.85
2018-07-16T18:59:48.110Z,33.22
2018-07-16T19:02:51.445Z,34.49
2018-07-16T19:04:22.821Z,34.87
2018-07-16T19:05:54.431Z,34.77
2018-07-16T19:07:25.988Z,34.08
2018-07-16T19:10:29.358Z,34.06
2018-07-16T19:13:32.325Z,33.82
2018-07-16T19:15:03.908Z,33.59
2018-07-16T19:16:35.592Z,32.60
2018-07-16T19:18:07.072Z,32.78
2018-07-16T19:19:38.655Z,33.32
2018-07-16T19:21:10.238Z,33.18
2018-07-16T19:22:41.820Z,33.35
2018-07-16T19:24:13.410Z,31.99
2018-07-16T19:25:45.191Z,32.01
2018-07-16T19:27:16.572Z,31.57
2018-07-16T19:28:48.153Z,31.26
2018-07-16T19:30:19.737Z,31.25
2018-07-16T19:31:51.319Z,30.95
2018-07-16T19:33:23.205Z,30.76
2018-07-16T19:34:54.586Z,30.54
2018-07-16T19:36:26.077Z,30.62
2018-07-16T19:37:57.649Z,31.04
2018-07-16T19:39:29.252Z,30.47
2018-07-16T19:41:01.120Z,30.38
2018-07-16T19:42:32.397Z,30.16
2018-07-16T19:44:03.978Z,29.51
2018-07-16T19:45:35.647Z,28.86
2018-07-16T19:47:07.142Z,28.78
2018-07-16T19:50:10.305Z,28.78
2018-07-16T19:51:41.886Z,28.67
2018-07-16T19:53:13.567Z,28.36
2018-07-16T19:54:45.050Z,28.27
2018-07-16T19:57:48.219Z,28.22
2018-07-16T19:59:19.791Z,28.49
2018-07-16T20:00:51.372Z,28.51
2018-07-16T20:02:22.952Z,28.40
2018-07-16T20:03:54.761Z,28.22
2018-07-16T20:05:26.116Z,27.78
2018-07-16T20:06:57.700Z,27.69
2018-07-16T20:08:29.280Z,27.21
2018-07-16T20:10:00.938Z,27.00
2018-07-16T20:11:32.533Z,27.12
2018-07-16T20:13:04.099Z,26.99
2018-07-16T20:14:35.592Z,26.77
2018-07-16T20:16:07.172Z,26.55
2018-07-16T20:17:38.752Z,26.54
2018-07-16T20:19:10.332Z,26.54
2018-07-16T20:20:41.912Z,26.35
2018-07-16T20:22:13.489Z,26.12
2018-07-16T20:23:45.134Z,25.76
2018-07-16T20:25:16.649Z,25.45
2018-07-16T20:26:48.237Z,25.24
2018-07-16T20:28:19.804Z,25.13
2018-07-16T20:29:51.483Z,24.90
2018-07-16T20:31:23.012Z,24.78
2018-07-16T20:32:54.844Z,24.69
2018-07-16T20:34:26.118Z,24.49
2018-07-16T20:35:57.696Z,24.40
2018-07-16T20:37:29.275Z,24.37
2018-07-16T20:39:00.852Z,24.00
2018-07-16T20:40:32.430Z,23.87
2018-07-16T20:42:04.009Z,23.90
2018-07-16T20:43:35.584Z,23.90
2018-07-16T20:45:07.162Z,23.97
2018-07-16T20:46:38.739Z,23.88
2018-07-16T20:48:10.421Z,23.87
2018-07-16T20:49:41.894Z,23.78
2018-07-16T20:51:13.470Z,23.83
2018-07-16T20:52:45.049Z,23.83
2018-07-16T20:54:16.624Z,23.78
2018-07-16T20:55:48.201Z,23.66
2018-07-16T20:57:19.778Z,23.58
2018-07-16T20:58:51.354Z,23.47
2018-07-16T21:00:22.931Z,23.23
2018-07-16T21:01:54.510Z,23.13